createdAt,value
2022-10-26T00:00:50.859Z,6.32
2022-10-26T00:03:18.010Z,6.39
2022-10-26T00:05:44.961Z,6.42
2022-10-26T00:08:11.753Z,6.43
2022-10-26T00:10:39.165Z,6.47
2022-10-26T00:13:09.743Z,6.48
2022-10-26T00:15:40.167Z,6.46
2022-10-26T00:18:06.772Z,6.27
2022-10-26T00:20:33.344Z,6.44
2022-10-26T00:22:59.910Z,6.40
2022-10-26T00:25:26.414Z,6.41
2022-10-26T00:27:53.138Z,6.36
2022-10-26T00:30:19.686Z,6.36
2022-10-26T00:32:46.284Z,6.39
2022-10-26T00:35:23.055Z,6.41
2022-10-26T00:37:59.877Z,6.46
2022-10-26T00:40:30.035Z,6.32
2022-10-26T00:42:56.733Z,6.29
2022-10-26T00:45:29.154Z,6.30
2022-10-26T00:48:02.951Z,6.38
2022-10-26T00:50:36.766Z,6.42
2022-10-26T00:53:06.391Z,6.46
2022-10-26T00:55:37.452Z,6.37
2022-10-26T00:58:07.168Z,6.47
2022-10-26T01:00:33.756Z,6.46
2022-10-26T01:03:04.422Z,6.46
2022-10-26T01:05:32.157Z,6.47
2022-10-26T01:07:58.817Z,6.43
2022-10-26T01:10:26.461Z,6.41
2022-10-26T01:12:54.537Z,6.40
2022-10-26T01:15:25.107Z,6.38
2022-10-26T01:18:02.461Z,6.35
2022-10-26T01:20:42.794Z,6.34
2022-10-26T01:23:16.239Z,6.41
2022-10-26T01:26:13.370Z,6.42
2022-10-26T01:29:19.926Z,6.19
2022-10-26T01:31:59.934Z,6.31
2022-10-26T01:34:36.130Z,6.22
2022-10-26T01:37:11.996Z,6.24
2022-10-26T01:39:44.935Z,6.30
2022-10-26T01:42:15.572Z,6.09
2022-10-26T01:45:03.446Z,6.39
2022-10-26T01:47:33.714Z,6.37
2022-10-26T01:50:02.333Z,6.31
2022-10-26T01:52:29.140Z,6.34
2022-10-26T01:55:03.344Z,6.32
2022-10-26T01:57:35.284Z,6.21
2022-10-26T02:00:11.871Z,5.92
2022-10-26T02:03:01.797Z,5.89
2022-10-26T02:05:51.209Z,5.80
2022-10-26T02:08:31.248Z,5.69
2022-10-26T02:11:06.907Z,5.72
2022-10-26T02:13:48.341Z,5.77
2022-10-26T02:16:28.889Z,5.78
2022-10-26T02:19:06.152Z,5.68
2022-10-26T02:21:39.438Z,5.96
2022-10-26T02:24:10.417Z,5.62
2022-10-26T02:26:40.987Z,5.65
2022-10-26T02:29:11.387Z,5.75
2022-10-26T02:31:39.293Z,5.86
2022-10-26T02:34:09.551Z,6.07
2022-10-26T02:36:41.542Z,5.99
2022-10-26T02:39:10.090Z,6.17
2022-10-26T02:41:39.767Z,6.24
2022-10-26T02:44:14.509Z,6.32
2022-10-26T02:46:42.229Z,6.32
2022-10-26T02:49:08.805Z,6.34
2022-10-26T02:51:43.877Z,6.04
2022-10-26T02:54:13.436Z,6.24
2022-10-26T02:56:54.321Z,6.26
2022-10-26T02:59:24.861Z,6.40
2022-10-26T03:01:52.793Z,6.41
2022-10-26T03:04:19.727Z,6.43
2022-10-26T03:06:54.183Z,6.39
2022-10-26T03:09:23.492Z,6.37
2022-10-26T03:11:52.502Z,6.50
2022-10-26T03:14:19.333Z,6.50
2022-10-26T03:16:46.022Z,6.35
2022-10-26T03:19:12.777Z,6.24
2022-10-26T03:21:39.326Z,6.14
2022-10-26T03:24:06.445Z,6.16
2022-10-26T03:26:33.001Z,6.07
2022-10-26T03:28:59.639Z,6.14
2022-10-26T03:31:26.331Z,6.19
2022-10-26T03:33:52.845Z,6.24
2022-10-26T03:36:19.440Z,6.19
2022-10-26T03:38:45.999Z,6.21
2022-10-26T03:41:12.592Z,6.23
2022-10-26T03:43:39.090Z,6.20
2022-10-26T03:46:05.771Z,6.23
2022-10-26T03:48:32.267Z,6.24
2022-10-26T03:50:59.195Z,6.30
2022-10-26T03:53:26.400Z,6.27
2022-10-26T03:55:52.960Z,6.30
2022-10-26T03:58:19.511Z,6.27
2022-10-26T04:00:47.527Z,6.24
2022-10-26T04:03:14.052Z,6.32
2022-10-26T04:05:40.623Z,6.29
2022-10-26T04:08:08.356Z,6.32
2022-10-26T04:10:34.990Z,6.35
2022-10-26T04:13:01.538Z,6.33
2022-10-26T04:15:28.830Z,6.34
2022-10-26T04:17:57.067Z,6.32
2022-10-26T04:20:24.355Z,6.35
2022-10-26T04:23:01.445Z,6.38
2022-10-26T04:25:31.796Z,6.27
2022-10-26T04:28:00.943Z,6.38
2022-10-26T04:30:27.855Z,6.36
2022-10-26T04:32:54.425Z,6.30
2022-10-26T04:35:21.242Z,6.36
2022-10-26T04:37:47.964Z,6.26
2022-10-26T04:40:14.664Z,6.29
2022-10-26T04:42:45.491Z,6.31
2022-10-26T04:45:14.393Z,6.37
2022-10-26T04:47:41.565Z,6.37
2022-10-26T04:50:09.722Z,6.47
2022-10-26T04:52:36.920Z,6.42
2022-10-26T04:55:04.307Z,6.58
2022-10-26T04:57:30.822Z,6.57
2022-10-26T04:59:57.474Z,6.57
2022-10-26T05:02:24.057Z,6.59
2022-10-26T05:04:50.768Z,6.62
2022-10-26T05:07:17.345Z,6.62
2022-10-26T05:09:43.990Z,6.67
2022-10-26T05:12:10.548Z,6.68
2022-10-26T05:14:37.171Z,6.67
2022-10-26T05:17:03.733Z,6.69
2022-10-26T05:19:30.373Z,6.72
2022-10-26T05:21:58.319Z,6.66
2022-10-26T05:24:24.936Z,6.68
2022-10-26T05:26:51.478Z,6.72
2022-10-26T05:29:18.091Z,6.68
2022-10-26T05:31:44.602Z,6.67
2022-10-26T05:34:11.187Z,6.65
2022-10-26T05:36:37.830Z,6.61
2022-10-26T05:39:04.615Z,6.62
2022-10-26T05:41:31.124Z,6.60
2022-10-26T05:43:57.797Z,6.56
2022-10-26T05:46:24.291Z,6.52
2022-10-26T05:48:50.883Z,6.62
2022-10-26T05:51:17.437Z,6.68
2022-10-26T05:53:44.106Z,6.67
2022-10-26T05:56:19.294Z,6.66
2022-10-26T05:58:47.059Z,6.60
2022-10-26T06:01:31.521Z,6.57
2022-10-26T06:04:17.670Z,6.58
2022-10-26T06:06:47.855Z,6.72
2022-10-26T06:09:15.185Z,6.81
2022-10-26T06:11:42.170Z,6.70
2022-10-26T06:14:09.966Z,6.74
2022-10-26T06:16:54.487Z,6.73
2022-10-26T06:19:39.267Z,6.66
2022-10-26T06:22:08.910Z,6.49
2022-10-26T06:25:02.759Z,6.60
2022-10-26T06:27:46.146Z,6.45
2022-10-26T06:30:12.849Z,6.63
2022-10-26T06:32:43.546Z,6.73
2022-10-26T06:35:21.944Z,6.83
2022-10-26T06:37:49.945Z,6.95
2022-10-26T06:40:18.078Z,6.90
2022-10-26T06:42:45.443Z,7.01
2022-10-26T06:45:16.548Z,7.02
2022-10-26T06:48:00.491Z,7.11
2022-10-26T06:50:37.364Z,7.13
2022-10-26T06:53:25.879Z,7.01
2022-10-26T06:55:52.944Z,7.24
2022-10-26T06:58:27.725Z,7.25
2022-10-26T07:00:55.841Z,7.27
2022-10-26T07:03:22.556Z,7.31
2022-10-26T07:05:49.742Z,7.37
2022-10-26T07:08:16.298Z,7.37
2022-10-26T07:10:42.918Z,7.46
2022-10-26T07:13:10.754Z,7.47
2022-10-26T07:15:39.189Z,7.35
2022-10-26T07:18:07.347Z,7.26
2022-10-26T07:20:39.200Z,7.33
2022-10-26T07:23:07.003Z,7.43
2022-10-26T07:25:35.438Z,7.48
2022-10-26T07:28:02.438Z,7.56
2022-10-26T07:30:29.728Z,7.64
2022-10-26T07:33:13.202Z,7.79
2022-10-26T07:35:40.616Z,7.89
2022-10-26T07:38:07.725Z,7.88
2022-10-26T07:40:34.463Z,7.90
2022-10-26T07:43:01.075Z,7.89
2022-10-26T07:45:28.826Z,7.95
2022-10-26T07:47:55.869Z,7.98
2022-10-26T07:50:23.069Z,8.08
2022-10-26T07:52:50.002Z,8.19
2022-10-26T07:55:17.034Z,8.07
2022-10-26T07:57:43.535Z,8.28
2022-10-26T08:00:11.038Z,8.36
2022-10-26T08:02:37.611Z,8.29
2022-10-26T08:05:07.818Z,8.05
2022-10-26T08:07:40.123Z,8.28
2022-10-26T08:10:07.107Z,8.21
2022-10-26T08:12:33.625Z,8.45
2022-10-26T08:15:00.262Z,8.65
2022-10-26T08:17:28.144Z,8.83
2022-10-26T08:19:54.737Z,8.94
2022-10-26T08:22:21.276Z,9.09
2022-10-26T08:24:47.881Z,9.16
2022-10-26T08:27:15.057Z,8.99
2022-10-26T08:29:42.482Z,9.37
2022-10-26T08:32:09.148Z,9.33
2022-10-26T08:34:35.721Z,9.38
2022-10-26T08:37:02.312Z,9.25
2022-10-26T08:39:28.940Z,9.44
2022-10-26T08:42:03.481Z,9.59
2022-10-26T08:44:40.308Z,9.71
2022-10-26T08:47:21.965Z,9.81
2022-10-26T08:49:51.744Z,9.95
2022-10-26T08:52:24.880Z,10.01
2022-10-26T08:54:57.494Z,9.80
2022-10-26T08:57:39.252Z,10.02
2022-10-26T09:00:11.536Z,10.16
2022-10-26T09:02:38.159Z,10.19
2022-10-26T09:05:15.567Z,10.26
2022-10-26T09:07:54.496Z,10.24
2022-10-26T09:10:39.252Z,10.11
2022-10-26T09:13:23.565Z,9.83
2022-10-26T09:16:14.383Z,9.71
2022-10-26T09:18:57.810Z,9.79
2022-10-26T09:21:32.885Z,9.77
2022-10-26T09:24:06.888Z,9.84
2022-10-26T09:26:53.907Z,9.86
2022-10-26T09:29:26.853Z,10.04
2022-10-26T09:31:57.377Z,10.06
2022-10-26T09:34:41.046Z,10.13
2022-10-26T09:37:19.967Z,10.05
2022-10-26T09:40:05.129Z,10.12
2022-10-26T09:42:44.919Z,9.70
2022-10-26T09:45:32.720Z,10.17
2022-10-26T09:48:19.550Z,10.27
2022-10-26T09:50:49.343Z,10.29
2022-10-26T09:53:16.253Z,10.42
2022-10-26T09:55:46.537Z,10.44
2022-10-26T09:58:17.543Z,10.31
2022-10-26T10:00:45.001Z,10.51
2022-10-26T10:03:26.291Z,10.78
2022-10-26T10:05:53.526Z,10.94
2022-10-26T10:08:19.993Z,10.89
2022-10-26T10:11:15.830Z,10.96
2022-10-26T10:13:44.672Z,10.94
2022-10-26T10:16:22.837Z,11.35
2022-10-26T10:18:59.941Z,11.18
2022-10-26T10:21:44.343Z,11.47
2022-10-26T10:24:41.241Z,11.36
2022-10-26T10:27:13.754Z,11.56
2022-10-26T10:29:42.650Z,11.46
2022-10-26T10:32:16.440Z,10.85
2022-10-26T10:34:43.633Z,11.01
2022-10-26T10:37:39.786Z,11.08
2022-10-26T10:40:18.886Z,11.26
2022-10-26T10:42:47.702Z,11.11
2022-10-26T10:45:24.074Z,11.23
2022-10-26T10:48:02.662Z,11.42
2022-10-26T10:50:30.192Z,11.75
2022-10-26T10:53:16.303Z,11.63
2022-10-26T10:55:52.686Z,11.90
2022-10-26T10:58:27.873Z,11.77
2022-10-26T11:00:56.362Z,12.12
2022-10-26T11:03:41.528Z,12.16
2022-10-26T11:06:18.856Z,12.06
2022-10-26T11:09:14.009Z,12.22
2022-10-26T11:11:52.775Z,11.99
2022-10-26T11:14:32.946Z,12.18
2022-10-26T11:17:20.273Z,12.35
2022-10-26T11:20:03.987Z,12.54
2022-10-26T11:22:36.487Z,12.60
2022-10-26T11:25:03.028Z,12.35
2022-10-26T11:27:37.852Z,12.56
2022-10-26T11:30:17.842Z,12.73
2022-10-26T11:32:51.391Z,12.80
2022-10-26T11:35:24.128Z,12.87
2022-10-26T11:38:16.077Z,12.98
2022-10-26T11:40:47.543Z,13.03
2022-10-26T11:43:35.594Z,13.13
2022-10-26T11:46:20.491Z,13.25
2022-10-26T11:49:02.139Z,13.36
2022-10-26T11:51:28.947Z,13.17
2022-10-26T11:53:58.029Z,13.08
2022-10-26T11:56:39.114Z,13.16
2022-10-26T11:59:10.356Z,13.20
2022-10-26T12:01:37.033Z,13.17
2022-10-26T12:04:04.055Z,13.42
2022-10-26T12:06:32.944Z,13.50
2022-10-26T12:09:16.907Z,13.57
2022-10-26T12:11:53.124Z,13.26
2022-10-26T12:14:28.195Z,13.56
2022-10-26T12:17:13.300Z,14.01
2022-10-26T12:20:02.959Z,14.33
2022-10-26T12:22:34.515Z,14.19
2022-10-26T12:25:15.189Z,14.31
2022-10-26T12:27:43.547Z,14.46
2022-10-26T12:30:18.920Z,14.51
2022-10-26T12:32:45.451Z,14.47
2022-10-26T12:35:40.702Z,14.23
2022-10-26T12:38:29.018Z,14.42
2022-10-26T12:41:05.777Z,14.44
2022-10-26T12:43:37.092Z,14.45
2022-10-26T12:46:12.924Z,14.31
2022-10-26T12:48:41.927Z,14.64
2022-10-26T12:51:20.843Z,14.65
2022-10-26T12:54:04.360Z,14.66
2022-10-26T12:56:36.327Z,14.67
2022-10-26T12:59:38.227Z,14.81
2022-10-26T13:02:10.837Z,14.98
2022-10-26T13:05:23.956Z,14.98
2022-10-26T13:07:51.398Z,15.17
2022-10-26T13:10:25.407Z,14.84
2022-10-26T13:12:58.191Z,15.01
2022-10-26T13:15:29.942Z,14.91
2022-10-26T13:18:01.224Z,15.05
2022-10-26T13:20:31.031Z,14.97
2022-10-26T13:22:58.181Z,15.17
2022-10-26T13:25:28.497Z,14.89
2022-10-26T13:28:01.325Z,14.99
2022-10-26T13:30:33.851Z,14.97
2022-10-26T13:33:02.657Z,14.82
2022-10-26T13:35:31.888Z,14.94
2022-10-26T13:38:07.274Z,15.08
2022-10-26T13:40:37.870Z,14.80
2022-10-26T13:43:10.798Z,15.22
2022-10-26T13:45:49.342Z,15.49
2022-10-26T13:48:27.756Z,15.25
2022-10-26T13:53:47.941Z,15.20
2022-10-26T13:57:01.295Z,15.29
2022-10-26T13:59:30.413Z,15.30
2022-10-26T14:02:07.555Z,15.43
2022-10-26T14:04:34.221Z,15.29
2022-10-26T14:07:00.790Z,15.18
2022-10-26T14:09:29.356Z,15.31
2022-10-26T14:11:59.113Z,15.22
2022-10-26T14:14:30.864Z,14.88
2022-10-26T14:16:58.708Z,14.86
2022-10-26T14:19:35.819Z,14.71
2022-10-26T14:22:03.547Z,14.50
2022-10-26T14:24:46.662Z,14.48
2022-10-26T14:27:18.279Z,14.51
2022-10-26T14:29:49.976Z,14.80
2022-10-26T14:32:28.140Z,14.96
2022-10-26T14:34:55.626Z,14.86
2022-10-26T14:37:31.380Z,14.84
2022-10-26T14:39:58.134Z,14.76
2022-10-26T14:42:30.492Z,14.65
2022-10-26T14:44:58.488Z,14.64
2022-10-26T14:47:30.803Z,14.48
2022-10-26T14:52:31.522Z,14.30
2022-10-26T14:55:04.824Z,14.38
2022-10-26T14:57:34.296Z,14.40
2022-10-26T15:00:06.013Z,14.30
2022-10-26T15:02:33.031Z,14.32
2022-10-26T15:05:02.297Z,14.18
2022-10-26T15:07:36.830Z,14.08
2022-10-26T15:10:04.997Z,14.17
2022-10-26T15:12:39.042Z,14.31
2022-10-26T15:15:14.970Z,14.31
2022-10-26T15:17:43.669Z,14.30
2022-10-26T15:20:19.407Z,14.28
2022-10-26T15:22:52.309Z,14.41
2022-10-26T15:25:22.516Z,14.28
2022-10-26T15:27:49.700Z,13.98
2022-10-26T15:30:18.895Z,14.34
2022-10-26T15:32:46.154Z,14.30
2022-10-26T15:35:18.632Z,14.49
2022-10-26T15:37:47.901Z,14.47
2022-10-26T15:40:14.935Z,14.26
2022-10-26T15:42:42.903Z,14.24
2022-10-26T15:45:22.931Z,14.34
2022-10-26T15:47:51.667Z,14.24
2022-10-26T15:50:21.409Z,14.17
2022-10-26T15:52:49.429Z,13.88
2022-10-26T15:55:17.469Z,13.93
2022-10-26T15:57:44.327Z,13.95
2022-10-26T16:00:15.726Z,13.93
2022-10-26T16:02:43.744Z,13.95
2022-10-26T16:05:11.667Z,13.90
2022-10-26T16:07:39.891Z,13.79
2022-10-26T16:10:06.739Z,13.77
2022-10-26T16:12:33.320Z,13.81
2022-10-26T16:15:05.657Z,13.88
2022-10-26T16:17:32.845Z,13.90
2022-10-26T16:19:59.409Z,13.74
2022-10-26T16:22:26.053Z,13.77
2022-10-26T16:24:52.554Z,13.67
2022-10-26T16:27:19.130Z,13.54
2022-10-26T16:29:45.726Z,13.50
2022-10-26T16:32:12.258Z,13.47
2022-10-26T16:34:39.690Z,13.28
2022-10-26T16:37:06.410Z,13.31
2022-10-26T16:39:32.916Z,13.18
2022-10-26T16:41:59.716Z,12.94
2022-10-26T16:44:26.253Z,13.03
2022-10-26T16:46:52.780Z,13.12
2022-10-26T16:49:19.292Z,13.02
2022-10-26T16:51:45.947Z,12.92
2022-10-26T16:54:12.452Z,12.85
2022-10-26T16:56:39.040Z,13.18
2022-10-26T16:59:05.662Z,13.23
2022-10-26T17:01:32.291Z,13.13
2022-10-26T17:03:58.952Z,13.19
2022-10-26T17:06:25.666Z,13.00
2022-10-26T17:08:52.168Z,12.84
2022-10-26T17:11:21.056Z,12.95
2022-10-26T17:13:48.030Z,12.98
2022-10-26T17:16:17.554Z,12.96
2022-10-26T17:18:45.035Z,12.93
2022-10-26T17:21:13.193Z,12.95
2022-10-26T17:23:40.211Z,12.84
2022-10-26T17:26:09.808Z,13.03
2022-10-26T17:28:37.508Z,12.89
2022-10-26T17:31:10.188Z,13.09
2022-10-26T17:33:38.711Z,13.07
2022-10-26T17:36:07.262Z,12.96
2022-10-26T17:38:36.912Z,12.87
2022-10-26T17:41:06.071Z,12.97
2022-10-26T17:43:34.900Z,13.04
2022-10-26T17:46:03.824Z,13.07
2022-10-26T17:48:31.449Z,12.97
2022-10-26T17:51:02.009Z,12.97
2022-10-26T17:53:30.074Z,12.94
2022-10-26T17:56:10.766Z,12.97
2022-10-26T17:58:38.021Z,12.92
2022-10-26T18:01:06.901Z,12.95
2022-10-26T18:03:34.279Z,12.96
2022-10-26T18:06:01.502Z,12.92
2022-10-26T18:08:31.815Z,12.94
2022-10-26T18:10:58.488Z,12.61
2022-10-26T18:13:27.259Z,12.69
2022-10-26T18:15:53.788Z,12.79
2022-10-26T18:18:20.624Z,12.32
2022-10-26T18:20:47.110Z,12.48
2022-10-26T18:23:13.723Z,12.65
2022-10-26T18:25:40.263Z,12.42
2022-10-26T18:28:06.894Z,12.53
2022-10-26T18:30:33.909Z,12.52
2022-10-26T18:33:00.673Z,12.60
2022-10-26T18:35:27.179Z,12.52
2022-10-26T18:37:54.084Z,12.31
2022-10-26T18:40:21.059Z,12.26
2022-10-26T18:42:47.655Z,12.15
2022-10-26T18:45:14.506Z,12.19
2022-10-26T18:47:41.152Z,12.15
2022-10-26T18:50:08.007Z,12.06
2022-10-26T18:52:34.584Z,12.05
2022-10-26T18:55:01.134Z,12.21
2022-10-26T18:57:28.176Z,12.07
2022-10-26T18:59:55.192Z,12.13
2022-10-26T19:02:22.252Z,12.15
2022-10-26T19:04:48.763Z,12.23
2022-10-26T19:07:15.347Z,12.21
2022-10-26T19:09:42.245Z,12.24
2022-10-26T19:12:08.858Z,12.25
2022-10-26T19:14:35.362Z,12.26
2022-10-26T19:17:02.112Z,12.35
2022-10-26T19:19:28.615Z,12.24
2022-10-26T19:21:55.169Z,12.22
2022-10-26T19:24:23.312Z,12.34
2022-10-26T19:26:50.824Z,12.31
2022-10-26T19:29:18.295Z,12.35
2022-10-26T19:31:46.389Z,12.30
2022-10-26T19:34:14.514Z,12.33
2022-10-26T19:36:41.297Z,12.13
2022-10-26T19:39:08.148Z,12.28
2022-10-26T19:41:34.712Z,12.31
2022-10-26T19:44:01.410Z,12.28
2022-10-26T19:46:29.379Z,12.37
2022-10-26T19:48:58.037Z,12.35
2022-10-26T19:51:26.625Z,11.97
2022-10-26T19:53:53.450Z,12.27
2022-10-26T19:56:20.380Z,12.20
2022-10-26T19:58:47.709Z,12.27
2022-10-26T20:01:15.804Z,12.13
2022-10-26T20:03:42.586Z,11.91
2022-10-26T20:06:10.582Z,11.95
2022-10-26T20:08:38.160Z,12.13
2022-10-26T20:11:08.968Z,12.01
2022-10-26T20:13:39.514Z,12.09
2022-10-26T20:16:07.211Z,12.12
2022-10-26T20:18:34.464Z,12.11
2022-10-26T20:21:01.030Z,12.14
2022-10-26T20:23:27.598Z,11.90
2022-10-26T20:25:54.121Z,11.74
2022-10-26T20:28:20.832Z,11.77
2022-10-26T20:30:48.925Z,11.63
2022-10-26T20:33:15.766Z,11.88
2022-10-26T20:35:42.695Z,11.89
2022-10-26T20:38:17.588Z,11.87
2022-10-26T20:40:45.057Z,11.83
2022-10-26T20:43:16.903Z,11.67
2022-10-26T20:45:43.769Z,11.81
2022-10-26T20:48:12.092Z,11.84
2022-10-26T20:50:40.544Z,11.86
2022-10-26T20:53:25.586Z,11.83
2022-10-26T20:55:54.910Z,11.77
2022-10-26T20:58:38.681Z,11.77
2022-10-26T21:01:27.107Z,11.75
2022-10-26T21:03:55.328Z,11.71
2022-10-26T21:06:22.519Z,11.66
2022-10-26T21:08:50.317Z,11.58
2022-10-26T21:11:17.914Z,11.68
2022-10-26T21:13:46.399Z,11.62
2022-10-26T21:16:16.951Z,11.69
2022-10-26T21:18:43.773Z,11.69
2022-10-26T21:21:10.396Z,11.60
2022-10-26T21:23:39.406Z,11.62
2022-10-26T21:26:06.815Z,11.58
2022-10-26T21:28:38.770Z,11.60
2022-10-26T21:31:07.459Z,11.38
2022-10-26T21:33:34.237Z,11.58
2022-10-26T21:36:09.276Z,11.38
2022-10-26T21:38:35.791Z,11.49
2022-10-26T21:41:04.565Z,11.55
2022-10-26T21:43:32.829Z,11.53
2022-10-26T21:46:03.562Z,11.50
2022-10-26T21:48:31.782Z,11.48
2022-10-26T21:50:58.399Z,11.44
2022-10-26T21:53:26.950Z,11.40
2022-10-26T21:56:05.334Z,11.40
2022-10-26T21:58:32.460Z,11.12
2022-10-26T22:01:06.154Z,11.31
2022-10-26T22:03:33.325Z,11.24
2022-10-26T22:06:00.089Z,11.15
2022-10-26T22:08:27.253Z,11.13
2022-10-26T22:10:53.814Z,11.11
2022-10-26T22:13:23.548Z,10.89
2022-10-26T22:16:00.529Z,10.88
2022-10-26T22:18:27.070Z,10.73
2022-10-26T22:20:59.875Z,10.76
2022-10-26T22:23:26.569Z,10.57
2022-10-26T22:25:53.079Z,10.60
2022-10-26T22:28:19.920Z,10.61
2022-10-26T22:30:46.471Z,10.59
2022-10-26T22:33:13.483Z,10.39
2022-10-26T22:35:39.982Z,10.38
2022-10-26T22:38:08.903Z,10.36
2022-10-26T22:40:35.396Z,10.31
2022-10-26T22:43:02.045Z,10.28
2022-10-26T22:45:28.716Z,10.23
2022-10-26T22:47:55.331Z,10.22
2022-10-26T22:50:21.862Z,10.21
2022-10-26T22:52:48.609Z,10.18
2022-10-26T22:55:15.343Z,10.15
2022-10-26T22:57:41.928Z,10.11
2022-10-26T23:00:09.124Z,10.07
2022-10-26T23:02:35.663Z,10.05
2022-10-26T23:05:02.173Z,10.07
2022-10-26T23:07:29.360Z,10.05
2022-10-26T23:09:56.104Z,9.94
2022-10-26T23:12:22.748Z,9.94
2022-10-26T23:14:49.332Z,9.89
2022-10-26T23:17:16.000Z,9.83
2022-10-26T23:19:42.486Z,9.77
2022-10-26T23:22:09.159Z,9.73
2022-10-26T23:24:35.669Z,9.71
2022-10-26T23:27:02.256Z,9.69
2022-10-26T23:29:28.798Z,9.70
2022-10-26T23:31:55.450Z,9.70
2022-10-26T23:34:21.945Z,9.69
2022-10-26T23:36:48.540Z,9.71
2022-10-26T23:39:15.049Z,9.71
2022-10-26T23:41:41.595Z,9.73
2022-10-26T23:44:08.160Z,9.71
2022-10-26T23:46:34.843Z,9.71
2022-10-26T23:49:01.467Z,9.77
2022-10-26T23:51:28.295Z,9.72
2022-10-26T23:53:54.809Z,9.80
2022-10-26T23:56:21.368Z,9.81
2022-10-26T23:58:50.876Z,9.80
